createdAt,value
2022-10-12T00:02:15.811Z,38.60
2022-10-12T00:04:44.403Z,37.30
2022-10-12T00:07:12.732Z,35.97
2022-10-12T00:09:41.588Z,29.33
2022-10-12T00:12:09.900Z,36.70
2022-10-12T00:14:38.740Z,30.08
2022-10-12T00:17:07.252Z,30.30
2022-10-12T00:19:35.655Z,27.20
2022-10-12T00:22:04.090Z,26.58
2022-10-12T00:24:32.625Z,26.35
2022-10-12T00:27:00.925Z,23.23
2022-10-12T00:29:29.223Z,26.27
2022-10-12T00:31:57.649Z,22.50
2022-10-12T00:34:26.130Z,21.60
2022-10-12T00:36:55.858Z,21.52
2022-10-12T00:39:24.347Z,21.10
2022-10-12T00:41:52.754Z,25.10
2022-10-12T00:44:46.634Z,30.80
2022-10-12T00:48:05.103Z,22.45
2022-10-12T00:50:35.462Z,25.77
2022-10-12T00:53:11.649Z,21.15
2022-10-12T00:55:47.633Z,28.10
2022-10-12T00:58:16.568Z,24.98
2022-10-12T01:00:45.431Z,29.75
2022-10-12T01:03:17.816Z,23.50
2022-10-12T01:05:46.119Z,23.17
2022-10-12T01:08:14.932Z,26.23
2022-10-12T01:10:43.366Z,22.23
2022-10-12T01:13:12.698Z,21.48
2022-10-12T01:15:49.064Z,23.90
2022-10-12T01:18:30.198Z,19.00
2022-10-12T01:21:04.504Z,24.80
2022-10-12T01:24:01.586Z,19.35
2022-10-12T01:27:13.560Z,20.25
2022-10-12T01:30:08.230Z,22.30
2022-10-12T01:33:00.960Z,22.48
2022-10-12T01:35:39.926Z,23.45
2022-10-12T01:38:21.023Z,23.23
2022-10-12T01:41:13.333Z,20.88
2022-10-12T01:43:44.230Z,17.50
2022-10-12T01:46:15.804Z,22.87
2022-10-12T01:48:47.939Z,19.10
2022-10-12T01:51:30.129Z,21.05
2022-10-12T01:54:36.392Z,24.05
2022-10-12T01:57:14.208Z,23.30
2022-10-12T01:59:57.737Z,23.60
2022-10-12T02:02:44.996Z,20.38
2022-10-12T02:05:19.675Z,20.10
2022-10-12T02:07:54.085Z,20.40
2022-10-12T02:10:28.095Z,25.10
2022-10-12T02:13:02.211Z,20.10
2022-10-12T02:15:33.119Z,21.40
2022-10-12T02:18:04.665Z,24.83
2022-10-12T02:20:34.721Z,29.67
2022-10-12T02:23:03.893Z,21.65
2022-10-12T02:25:34.862Z,28.95
2022-10-12T02:28:09.557Z,28.40
2022-10-12T02:30:48.056Z,23.70
2022-10-12T02:33:25.792Z,23.15
2022-10-12T02:36:03.281Z,31.95
2022-10-12T02:38:34.517Z,28.25
2022-10-12T02:41:11.315Z,29.83
2022-10-12T02:43:46.907Z,25.33
2022-10-12T02:46:17.360Z,22.15
2022-10-12T02:48:48.339Z,30.17
2022-10-12T02:51:17.634Z,22.00
2022-10-12T02:53:46.727Z,24.52
2022-10-12T02:56:16.531Z,27.33
2022-10-12T02:58:46.511Z,25.02
2022-10-12T03:02:05.072Z,27.00
2022-10-12T03:04:33.474Z,22.85
2022-10-12T03:07:01.722Z,31.13
2022-10-12T03:09:30.387Z,23.60
2022-10-12T03:11:58.868Z,22.92
2022-10-12T03:14:27.700Z,21.08
2022-10-12T03:16:56.163Z,27.05
2022-10-12T03:19:24.723Z,23.65
2022-10-12T03:21:53.035Z,26.88
2022-10-12T03:24:21.456Z,26.33
2022-10-12T03:26:49.935Z,25.25
2022-10-12T03:29:18.250Z,27.95
2022-10-12T03:31:46.605Z,28.83
2022-10-12T03:34:15.019Z,23.98
2022-10-12T03:36:43.284Z,30.08
2022-10-12T03:39:12.156Z,22.20
2022-10-12T03:41:40.463Z,23.95
2022-10-12T03:44:08.940Z,24.83
2022-10-12T03:46:37.205Z,25.63
2022-10-12T03:49:05.709Z,28.95
2022-10-12T03:51:34.031Z,23.88
2022-10-12T03:54:02.451Z,20.55
2022-10-12T03:56:30.763Z,24.98
2022-10-12T03:58:59.616Z,26.40
2022-10-12T04:01:28.042Z,28.17
2022-10-12T04:03:56.542Z,26.58
2022-10-12T04:06:24.902Z,24.73
2022-10-12T04:08:53.194Z,24.48
2022-10-12T04:11:22.163Z,27.92
2022-10-12T04:13:50.665Z,26.30
2022-10-12T04:16:18.919Z,35.17
2022-10-12T04:18:47.391Z,26.33
2022-10-12T04:21:17.129Z,29.88
2022-10-12T04:23:45.472Z,25.95
2022-10-12T04:26:14.000Z,25.77
2022-10-12T04:28:42.391Z,24.17
2022-10-12T04:31:10.752Z,24.88
2022-10-12T04:33:39.301Z,26.95
2022-10-12T04:36:26.927Z,23.25
2022-10-12T04:39:00.613Z,24.08
2022-10-12T04:41:29.609Z,22.08
2022-10-12T04:44:23.100Z,26.58
2022-10-12T04:46:51.557Z,24.65
2022-10-12T04:49:20.109Z,24.23
2022-10-12T04:51:48.670Z,30.92
2022-10-12T04:54:17.246Z,31.42
2022-10-12T04:56:48.122Z,28.85
2022-10-12T04:59:17.097Z,32.30
2022-10-12T05:01:45.810Z,31.10
2022-10-12T05:04:14.878Z,30.17
2022-10-12T05:06:43.492Z,28.30
2022-10-12T05:09:17.131Z,33.95
2022-10-12T05:11:49.682Z,32.70
2022-10-12T05:16:59.780Z,33.92
2022-10-12T05:19:28.391Z,33.28
2022-10-12T05:21:57.385Z,37.53
2022-10-12T05:24:25.756Z,35.10
2022-10-12T05:26:54.637Z,28.23
2022-10-12T05:29:22.958Z,32.10
2022-10-12T05:34:59.690Z,34.47
2022-10-12T05:38:19.839Z,41.60
2022-10-12T05:40:48.184Z,48.42
2022-10-12T05:43:16.730Z,64.25
2022-10-12T05:45:45.106Z,58.20
2022-10-12T05:48:14.391Z,64.63
2022-10-12T05:50:43.000Z,59.97
2022-10-12T05:53:11.689Z,60.33
2022-10-12T05:55:40.447Z,53.75
2022-10-12T05:58:09.148Z,68.13
2022-10-12T06:00:37.662Z,64.32
2022-10-12T06:03:06.528Z,60.10
2022-10-12T06:05:34.936Z,64.60
2022-10-12T06:08:03.957Z,67.38
2022-10-12T06:10:32.355Z,76.13
2022-10-12T06:13:01.788Z,68.47
2022-10-12T06:15:31.212Z,78.80
2022-10-12T06:18:00.251Z,68.00
2022-10-12T06:20:28.725Z,70.50
2022-10-12T06:22:57.216Z,72.18
2022-10-12T06:25:26.037Z,72.65
2022-10-12T06:27:54.429Z,71.10
2022-10-12T06:30:23.054Z,71.22
2022-10-12T06:32:51.727Z,65.97
2022-10-12T06:35:20.680Z,62.63
2022-10-12T06:37:51.720Z,63.58
2022-10-12T06:40:20.507Z,78.10
2022-10-12T06:42:51.173Z,79.03
2022-10-12T06:45:21.523Z,51.78
2022-10-12T06:47:50.033Z,58.78
2022-10-12T06:50:18.888Z,54.50
2022-10-12T06:52:47.686Z,53.10
2022-10-12T06:55:16.649Z,51.35
2022-10-12T06:57:45.142Z,51.50
2022-10-12T07:00:14.794Z,54.47
2022-10-12T07:02:43.181Z,56.88
2022-10-12T07:05:12.027Z,53.47
2022-10-12T07:07:42.905Z,66.75
2022-10-12T07:10:12.082Z,69.68
2022-10-12T07:12:41.046Z,64.03
2022-10-12T07:15:10.562Z,64.82
2022-10-12T07:17:39.218Z,58.65
2022-10-12T07:20:08.806Z,55.08
2022-10-12T07:22:37.183Z,49.08
2022-10-12T07:25:06.417Z,58.38
2022-10-12T07:27:35.197Z,51.45
2022-10-12T07:30:04.552Z,47.92
2022-10-12T07:32:32.927Z,37.78
2022-10-12T07:35:01.662Z,39.28
2022-10-12T07:37:30.270Z,38.95
2022-10-12T07:39:58.692Z,43.00
2022-10-12T07:42:27.392Z,42.53
2022-10-12T07:44:55.842Z,49.42
2022-10-12T07:47:24.366Z,36.45
2022-10-12T07:49:52.972Z,32.15
2022-10-12T07:52:21.560Z,38.05
2022-10-12T07:54:50.113Z,41.63
2022-10-12T07:57:19.590Z,34.85
2022-10-12T07:59:48.358Z,35.47
2022-10-12T08:02:17.144Z,34.85
2022-10-12T08:04:45.708Z,34.60
2022-10-12T08:07:14.503Z,40.00
2022-10-12T08:09:43.014Z,39.65
2022-10-12T08:12:11.864Z,38.10
2022-10-12T08:14:40.522Z,31.27
2022-10-12T08:17:10.314Z,29.88
2022-10-12T08:19:39.014Z,24.13
2022-10-12T08:22:08.197Z,20.52
2022-10-12T08:24:36.914Z,28.80
2022-10-12T08:27:05.745Z,24.10
2022-10-12T08:29:34.102Z,20.80
2022-10-12T08:32:03.015Z,23.33
2022-10-12T08:34:31.655Z,18.95
2022-10-12T08:37:00.405Z,25.63
2022-10-12T08:39:29.220Z,22.77
2022-10-12T08:42:19.743Z,20.95
2022-10-12T08:44:58.255Z,18.02
2022-10-12T08:47:29.941Z,22.40
2022-10-12T08:50:00.576Z,23.55
2022-10-12T08:52:48.764Z,23.65
2022-10-12T08:55:34.732Z,23.40
2022-10-12T08:58:04.197Z,18.67
2022-10-12T09:00:34.971Z,19.27
2022-10-12T09:03:32.981Z,17.65
2022-10-12T09:06:11.023Z,15.32
2022-10-12T09:08:58.043Z,25.13
2022-10-12T09:11:53.500Z,13.50
2022-10-12T09:14:33.481Z,16.30
2022-10-12T09:17:05.756Z,20.05
2022-10-12T09:19:41.572Z,15.77
2022-10-12T09:22:19.817Z,18.38
2022-10-12T09:24:53.117Z,15.75
2022-10-12T09:27:22.681Z,14.30
2022-10-12T09:29:59.647Z,15.43
2022-10-12T09:32:54.212Z,15.43
2022-10-12T09:35:23.223Z,15.68
2022-10-12T09:37:54.107Z,15.75
2022-10-12T09:40:32.940Z,13.27
2022-10-12T09:43:03.605Z,13.77
2022-10-12T09:45:34.800Z,14.20
2022-10-12T09:48:10.741Z,14.27
2022-10-12T09:51:03.375Z,11.93
2022-10-12T09:53:57.820Z,10.32
2022-10-12T09:56:30.871Z,10.73
2022-10-12T09:59:02.561Z,13.85
2022-10-12T10:01:37.254Z,11.32
2022-10-12T10:04:23.542Z,8.38
2022-10-12T10:06:52.891Z,8.77
2022-10-12T10:09:36.307Z,8.43
2022-10-12T10:12:40.720Z,10.18
2022-10-12T10:15:40.159Z,9.77
2022-10-12T10:18:28.385Z,7.85
2022-10-12T10:20:59.291Z,8.30
2022-10-12T10:23:52.423Z,10.57
2022-10-12T10:26:24.485Z,7.22
2022-10-12T10:29:16.057Z,8.23
2022-10-12T10:31:46.569Z,8.57
2022-10-12T10:34:25.743Z,11.18
2022-10-12T10:36:56.550Z,9.05
2022-10-12T10:39:32.497Z,8.13
2022-10-12T10:42:21.025Z,5.20
2022-10-12T10:45:13.198Z,8.05
2022-10-12T10:53:06.915Z,5.88
2022-10-12T10:55:47.978Z,11.32
2022-10-12T10:58:49.766Z,9.43
2022-10-12T11:01:54.872Z,7.95
2022-10-12T11:04:38.191Z,6.57
2022-10-12T11:07:21.933Z,8.38
2022-10-12T11:09:57.858Z,8.02
2022-10-12T11:12:49.961Z,6.80
2022-10-12T11:15:27.626Z,6.95
2022-10-12T11:18:22.887Z,5.47
2022-10-12T11:21:03.132Z,10.32
2022-10-12T11:24:24.458Z,10.85
2022-10-12T11:27:14.563Z,10.30
2022-10-12T11:29:46.626Z,10.40
2022-10-12T11:32:31.473Z,6.03
2022-10-12T11:35:04.463Z,7.63
2022-10-12T11:38:11.590Z,7.38
2022-10-12T11:43:46.768Z,10.20
2022-10-12T11:46:33.789Z,9.65
2022-10-12T11:49:28.041Z,8.30
2022-10-12T11:52:13.021Z,6.13
2022-10-12T11:55:18.944Z,9.60
2022-10-12T12:01:16.456Z,6.18
2022-10-12T12:04:36.845Z,7.07
2022-10-12T12:07:37.944Z,6.80
2022-10-12T12:10:25.509Z,6.78
2022-10-12T12:16:43.542Z,6.97
2022-10-12T12:20:49.372Z,11.38
2022-10-12T12:22:50.976Z,5.40
2022-10-12T12:25:34.406Z,9.38
2022-10-12T12:28:25.120Z,9.40
2022-10-12T12:31:02.575Z,8.02
2022-10-12T12:33:48.227Z,7.60
2022-10-12T12:36:52.842Z,7.22
2022-10-12T12:39:34.641Z,8.90
2022-10-12T12:42:11.986Z,13.35
2022-10-12T12:44:46.044Z,6.20
2022-10-12T12:47:44.718Z,7.20
2022-10-12T12:50:35.671Z,6.97
2022-10-12T12:53:31.794Z,7.20
2022-10-12T12:56:15.226Z,7.93
2022-10-12T12:59:26.193Z,7.65
2022-10-12T13:02:39.752Z,6.97
2022-10-12T13:05:35.891Z,6.47
2022-10-12T13:08:29.445Z,4.75
2022-10-12T13:11:31.270Z,6.75
2022-10-12T13:15:12.298Z,8.85
2022-10-12T13:21:57.059Z,6.22
2022-10-12T13:28:20.797Z,7.65
2022-10-12T13:31:28.201Z,7.75
2022-10-12T13:37:56.075Z,8.73
2022-10-12T13:41:23.888Z,7.75
2022-10-12T13:44:25.271Z,6.18
2022-10-12T13:47:10.375Z,5.93
2022-10-12T13:50:07.201Z,7.65
2022-10-12T13:53:00.813Z,8.27
2022-10-12T13:59:22.195Z,10.40
2022-10-12T14:02:02.397Z,8.63
2022-10-12T14:04:37.919Z,12.75
2022-10-12T14:07:25.164Z,13.07
2022-10-12T14:10:42.981Z,5.40
2022-10-12T14:13:38.784Z,7.50
2022-10-12T14:16:36.080Z,6.80
2022-10-12T14:19:34.897Z,6.82
2022-10-12T14:22:23.068Z,6.65
2022-10-12T14:25:21.334Z,6.50
2022-10-12T14:28:07.056Z,9.65
2022-10-12T14:30:52.400Z,8.77
2022-10-12T14:33:27.118Z,5.00
2022-10-12T14:36:23.342Z,10.07
2022-10-12T14:42:30.877Z,13.40
2022-10-12T14:45:01.336Z,10.25
2022-10-12T14:47:41.876Z,21.92
2022-10-12T14:50:24.862Z,36.90
2022-10-12T14:53:11.527Z,25.77
2022-10-12T14:55:41.648Z,16.25
2022-10-12T14:58:15.789Z,8.75
2022-10-12T15:00:44.636Z,11.60
2022-10-12T15:03:13.650Z,14.02
2022-10-12T15:05:42.150Z,11.45
2022-10-12T15:08:10.958Z,11.55
2022-10-12T15:10:40.716Z,11.32
2022-10-12T15:13:15.365Z,13.05
2022-10-12T15:15:46.929Z,14.00
2022-10-12T15:18:18.010Z,13.65
2022-10-12T15:21:03.915Z,13.88
2022-10-12T15:23:32.875Z,18.98
2022-10-12T15:26:04.503Z,22.25
2022-10-12T15:28:44.510Z,21.75
2022-10-12T15:31:17.975Z,19.20
2022-10-12T15:33:48.445Z,26.25
2022-10-12T15:36:16.813Z,22.30
2022-10-12T15:39:10.349Z,18.00
2022-10-12T15:41:38.737Z,18.48
2022-10-12T15:45:30.841Z,20.35
2022-10-12T15:47:59.747Z,14.60
2022-10-12T15:50:37.210Z,23.27
2022-10-12T15:53:22.983Z,37.83
2022-10-12T15:55:53.342Z,37.90
2022-10-12T15:58:22.696Z,40.97
2022-10-12T16:00:54.584Z,40.45
2022-10-12T16:03:26.189Z,39.47
2022-10-12T16:05:56.754Z,40.83
2022-10-12T16:08:29.249Z,42.90
2022-10-12T16:11:03.931Z,39.15
2022-10-12T16:13:47.993Z,35.85
2022-10-12T16:16:22.398Z,40.00
2022-10-12T16:18:56.081Z,35.58
2022-10-12T16:21:37.077Z,40.30
2022-10-12T16:28:09.075Z,41.33
2022-10-12T16:35:37.961Z,35.60
2022-10-12T16:55:12.014Z,48.25
2022-10-12T17:02:12.095Z,57.33
2022-10-12T17:24:10.646Z,104.90
2022-10-12T17:26:41.068Z,141.05
2022-10-12T17:29:15.027Z,144.52
2022-10-12T17:31:43.523Z,132.27
2022-10-12T17:34:31.149Z,145.23
2022-10-12T17:37:01.317Z,147.60
2022-10-12T17:39:33.242Z,153.50
2022-10-12T17:42:02.058Z,184.35
2022-10-12T17:44:30.660Z,185.25
2022-10-12T17:46:59.155Z,176.10
2022-10-12T17:49:28.442Z,199.13
2022-10-12T17:51:57.039Z,207.43
2022-10-12T17:54:26.806Z,147.57
2022-10-12T17:56:56.462Z,148.98
2022-10-12T17:59:26.106Z,158.35
2022-10-12T18:33:02.482Z,224.95
2022-10-12T18:35:36.708Z,236.50
2022-10-12T18:38:10.358Z,279.05
2022-10-12T18:40:44.033Z,264.92
2022-10-12T18:43:12.492Z,242.35
2022-10-12T18:45:45.232Z,235.90
2022-10-12T18:50:42.432Z,180.05
2022-10-12T18:53:10.942Z,166.95
2022-10-12T18:55:39.685Z,135.68
2022-10-12T18:58:08.307Z,120.13
2022-10-12T19:00:36.806Z,152.75
2022-10-12T19:03:05.161Z,163.95
2022-10-12T19:05:33.771Z,168.13
2022-10-12T19:08:03.438Z,149.90
2022-10-12T19:10:31.940Z,90.28
2022-10-12T19:13:01.052Z,78.35
2022-10-12T19:15:30.192Z,83.20
2022-10-12T19:17:58.527Z,70.30
2022-10-12T19:20:36.321Z,68.97
2022-10-12T19:23:05.028Z,77.82
2022-10-12T19:25:48.289Z,69.25
2022-10-12T19:28:17.061Z,84.45
2022-10-12T19:30:45.408Z,91.18
2022-10-12T19:33:13.904Z,87.85
2022-10-12T19:35:42.222Z,102.95
2022-10-12T19:38:10.913Z,87.97
2022-10-12T19:40:41.016Z,83.63
2022-10-12T19:43:09.606Z,100.25
2022-10-12T19:45:41.494Z,89.47
2022-10-12T19:48:11.858Z,95.40
2022-10-12T19:50:40.219Z,116.68
2022-10-12T19:53:09.076Z,123.78
2022-10-12T19:55:40.608Z,119.53
2022-10-12T19:58:09.178Z,106.43
2022-10-12T20:00:37.746Z,86.10
2022-10-12T20:03:36.165Z,83.57
2022-10-12T20:06:09.092Z,53.40
2022-10-12T20:08:46.060Z,39.30
2022-10-12T20:11:19.037Z,46.92
2022-10-12T20:13:51.658Z,49.65
2022-10-12T20:16:23.500Z,55.47
2022-10-12T20:22:00.039Z,65.18
2022-10-12T20:24:28.553Z,68.18
2022-10-12T20:26:57.008Z,64.18
2022-10-12T20:29:25.482Z,73.60
2022-10-12T20:31:53.848Z,63.53
2022-10-12T20:34:22.174Z,59.20
2022-10-12T20:37:18.639Z,67.90
2022-10-12T20:39:49.956Z,82.53
2022-10-12T20:42:21.868Z,85.43
2022-10-12T20:47:19.796Z,92.45
2022-10-12T20:49:48.546Z,127.85
2022-10-12T20:52:17.443Z,155.15
2022-10-12T20:54:46.309Z,165.85
2022-10-12T20:57:14.624Z,167.63
2022-10-12T20:59:45.148Z,152.13
2022-10-12T21:02:13.677Z,127.50
2022-10-12T21:04:42.199Z,81.47
2022-10-12T21:07:14.915Z,95.55
2022-10-12T21:09:44.428Z,100.13
2022-10-12T21:12:12.781Z,103.05
2022-10-12T21:14:41.148Z,100.68
2022-10-12T21:17:09.587Z,115.95
2022-10-12T21:19:37.873Z,124.00
2022-10-12T21:22:06.366Z,105.35
2022-10-12T21:24:35.055Z,82.85
2022-10-12T21:27:04.871Z,64.55
2022-10-12T21:29:33.167Z,59.05
2022-10-12T21:32:01.644Z,50.38
2022-10-12T21:34:29.901Z,46.65
2022-10-12T21:36:58.222Z,44.58
2022-10-12T21:39:26.796Z,47.15
2022-10-12T21:41:55.262Z,55.13
2022-10-12T21:44:23.584Z,58.72
2022-10-12T21:46:52.050Z,47.95
2022-10-12T21:49:20.392Z,50.53
2022-10-12T21:51:49.116Z,58.45
2022-10-12T21:54:17.591Z,61.08
2022-10-12T21:56:45.914Z,51.80
2022-10-12T21:59:14.209Z,57.03
2022-10-12T22:01:43.464Z,54.30
2022-10-12T22:04:14.937Z,56.58
2022-10-12T22:06:43.692Z,58.15
2022-10-12T22:09:16.973Z,50.60
2022-10-12T22:11:46.881Z,54.55
2022-10-12T22:14:17.959Z,58.67
2022-10-12T22:16:47.054Z,49.30
2022-10-12T22:19:19.021Z,55.20
2022-10-12T22:21:49.722Z,64.25
2022-10-12T22:24:20.411Z,60.38
2022-10-12T22:26:49.185Z,56.70
2022-10-12T22:29:17.707Z,57.40
2022-10-12T22:31:46.544Z,54.47
2022-10-12T22:34:16.892Z,52.05
2022-10-12T22:36:45.391Z,52.70
2022-10-12T22:39:14.070Z,50.83
2022-10-12T22:41:46.275Z,42.95
2022-10-12T22:44:14.526Z,38.28
2022-10-12T22:46:42.839Z,42.33
2022-10-12T22:49:11.365Z,33.28
2022-10-12T22:51:39.775Z,29.98
2022-10-12T22:54:08.567Z,33.55
2022-10-12T22:56:38.825Z,32.90
2022-10-12T22:59:07.291Z,27.55
2022-10-12T23:01:36.371Z,35.55
2022-10-12T23:04:05.239Z,43.30
2022-10-12T23:06:33.939Z,50.13
2022-10-12T23:09:02.980Z,46.95
2022-10-12T23:11:32.199Z,42.63
2022-10-12T23:14:00.572Z,36.20
2022-10-12T23:16:32.593Z,42.55
2022-10-12T23:19:05.119Z,37.90
2022-10-12T23:21:34.822Z,44.95
2022-10-12T23:24:05.275Z,40.50
2022-10-12T23:26:34.372Z,38.92
2022-10-12T23:29:02.749Z,33.97
2022-10-12T23:31:31.672Z,34.25
2022-10-12T23:34:06.142Z,27.65
2022-10-12T23:36:36.463Z,27.00
2022-10-12T23:39:06.248Z,28.02
2022-10-12T23:41:34.930Z,35.33
2022-10-12T23:44:03.933Z,29.63
2022-10-12T23:46:32.587Z,33.90
2022-10-12T23:49:00.900Z,38.70
2022-10-12T23:51:29.636Z,48.22
2022-10-12T23:53:58.090Z,48.25
2022-10-12T23:56:27.100Z,62.83
2022-10-12T23:58:56.898Z,66.00
